Date,TemperatureHighF,TemperatureAvgF,TemperatureLowF,DewpointHighF,DewpointAvgF,DewpointLowF,HumidityHigh,HumidityAvg,HumidityLow,PressureMaxIn,PressureMinIn,WindSpeedMaxMPH,WindSpeedAvgMPH,GustSpeedMaxMPH,PrecipitationSumIn
2013-1-1,42.6,37.7,34.2,38.2,35.1,32.0,93,91,82,29.96,29.32,6,2,19,0.01
2013-1-2,50.4,44.6,37.9,49.0,42.9,35.1,96,93,88,30.08,29.96,12,4,20,0.19
2013-1-3,50.7,49.5,47.5,48.9,47.0,44.4,94,91,88,30.42,30.07,11,2,21,0.00
2013-1-4,50.4,47.6,44.8,47.9,45.2,42.3,95,91,87,30.49,30.42,10,3,20,0.00
2013-1-5,48.7,45.6,40.8,46.4,43.2,38.9,96,91,85,30.47,30.31,20,5,28,0.01
2013-1-6,48.9,44.9,40.5,45.9,41.7,36.8,94,88,79,30.47,30.22,12,5,18,0.00
2013-1-7,49.3,47.7,46.2,47.3,45.3,43.2,95,91,87,30.21,30.03,10,5,16,0.22
2013-1-8,51.3,46.1,39.4,48.8,43.8,37.5,96,92,86,30.17,29.98,16,4,25,0.02
2013-1-9,44.8,39.3,36.9,41.1,37.4,35.4,96,93,87,30.18,30.08,8,2,14,0.01
2013-1-10,39.6,37.4,35.1,38.8,36.5,33.8,98,96,95,30.08,29.98,7,1,8,0.05
2013-1-11,38.8,36.4,33.8,37.3,34.8,32.1,98,94,92,30.06,30.00,7,2,12,0.01
2013-1-12,36.3,34.3,29.8,33.9,31.9,28.2,95,91,87,30.17,29.97,9,4,15,0.00
2013-1-13,35.2,32.9,30.9,33.1,30.6,29.0,95,91,85,30.18,30.01,10,4,17,0.00
2013-1-14,36.0,34.0,32.2,33.8,31.8,29.5,96,92,86,30.01,29.77,7,2,12,0.03
2013-1-15,35.8,29.1,20.5,33.1,27.3,18.8,96,93,88,29.96,29.86,4,1,7,0.01
2013-1-16,29.7,26.8,21.7,26.0,23.7,19.7,95,88,82,30.02,29.89,7,4,12,0.00
2013-1-17,33.3,29.7,28.4,27.0,24.4,22.1,89,81,71,30.05,29.85,15,8,30,0.00
2013-1-18,31.3,29.7,27.7,28.9,25.6,21.9,96,85,77,29.85,29.62,14,9,25,0.00
2013-1-19,34.0,31.0,25.9,30.6,28.4,23.2,96,90,82,29.78,29.63,8,4,17,0.02
2013-1-20,31.6,30.6,29.5,28.9,26.9,24.9,94,86,78,29.76,29.58,5,2,11,0.00
2013-1-21,31.8,31.3,30.6,30.9,29.7,27.1,97,94,83,29.58,29.52,11,5,24,0.00
2013-1-22,33.6,32.3,30.6,31.6,30.2,28.0,97,92,87,29.89,29.56,11,4,23,0.04
2013-1-23,34.2,32.2,28.6,30.8,29.5,25.6,93,90,85,30.01,29.89,7,2,12,0.02
2013-1-24,33.6,31.9,29.8,30.7,29.1,26.7,96,89,79,30.12,30.01,11,4,17,0.01
2013-1-25,33.6,32.4,30.6,31.5,29.2,26.4,94,88,80,30.01,29.43,16,11,27,0.01
2013-1-26,41.0,36.3,33.3,39.2,33.8,30.8,96,91,79,29.62,29.03,18,6,30,0.09
2013-1-27,46.9,39.6,36.0,43.8,36.4,31.6,97,88,81,29.23,28.82,20,8,31,0.05
2013-1-28,45.0,40.0,36.0,40.8,35.8,31.8,92,85,76,29.39,28.94,23,13,38,0.12
2013-1-29,51.1,44.2,41.7,48.2,40.3,35.7,94,86,77,29.38,28.99,22,8,36,0.15
2013-1-30,42.1,39.6,37.6,37.9,36.2,34.9,94,88,78,29.69,29.16,16,5,30,0.20
2013-1-31,42.1,39.1,36.0,38.9,36.4,34.0,96,90,81,29.71,29.26,17,6,29,0.29
2013-2-1,41.4,37.1,32.0,38.5,34.4,28.8,96,90,85,29.85,29.40,12,3,29,0.12
2013-2-2,38.1,33.5,30.2,30.6,28.2,25.9,90,81,64,30.23,29.85,10,2,15,0.00
2013-2-3,47.1,42.6,34.0,44.3,39.0,29.4,94,87,79,30.07,29.51,21,6,35,0.00
2013-2-4,47.1,35.9,30.0,44.9,33.4,28.0,96,91,81,29.59,29.36,5,2,22,0.11
2013-2-5,40.1,34.6,29.5,36.9,32.0,27.0,94,90,84,29.60,29.11,13,4,32,0.03
2013-2-6,38.1,35.3,32.4,34.0,29.9,26.4,91,80,72,30.16,29.59,10,4,19,0.01
2013-2-7,37.9,33.4,30.2,33.2,29.9,25.9,94,87,75,30.16,30.04,3,1,7,0.00
2013-2-8,42.3,36.6,32.2,34.8,32.8,30.8,96,86,69,30.20,30.10,5,1,11,0.04
2013-2-9,39.2,36.3,34.7,37.1,34.5,32.8,97,93,89,30.17,29.85,5,2,8,0.04
2013-2-10,36.9,34.9,32.7,34.3,32.3,30.3,93,90,83,29.85,29.45,13,6,26,0.04
2013-2-11,37.2,34.4,32.2,33.0,29.9,27.4,92,84,73,30.00,29.52,9,4,18,0.01
2013-2-12,34.2,33.2,31.6,29.8,28.7,27.4,89,83,79,30.15,30.00,5,2,10,0.00
2013-2-13,42.6,33.1,29.7,39.7,30.0,24.9,93,88,76,30.13,29.58,21,12,33,0.14
2013-2-14,46.6,42.0,39.6,41.8,38.8,36.9,92,89,81,29.86,29.60,14,4,19,0.01
2013-2-15,49.1,41.4,36.3,41.5,37.5,33.1,93,86,70,30.16,29.85,10,3,16,0.00
2013-2-16,47.1,40.9,35.2,43.3,38.3,32.3,93,90,85,30.17,30.13,7,4,12,0.00
2013-2-17,47.1,41.1,33.3,40.3,36.7,30.0,94,84,69,30.17,30.10,7,3,12,0.00
2013-2-18,48.7,37.3,31.5,37.0,31.2,23.6,91,79,53,30.16,30.12,6,3,10,0.00
2013-2-19,43.5,37.5,30.9,39.1,31.6,22.9,96,80,57,30.19,30.14,5,2,7,0.00
2013-2-20,39.0,36.1,31.6,37.2,32.9,26.5,97,88,81,30.36,30.19,10,5,20,0.00
2013-2-21,34.0,32.3,30.6,27.5,26.1,23.5,83,78,72,30.38,30.34,12,5,19,0.00
2013-2-22,33.6,32.0,30.7,28.2,25.6,23.0,87,77,71,30.37,30.33,5,1,12,0.00
2013-2-23,37.2,32.4,29.7,32.1,28.6,26.7,93,86,68,30.44,30.31,3,1,8,0.00
2013-2-24,36.0,31.9,27.5,34.2,30.7,26.0,97,95,91,30.54,30.43,1,0,4,0.20
2013-2-25,39.9,33.9,28.2,37.6,32.8,27.3,98,96,87,30.69,30.54,2,0,6,0.06
2013-2-26,43.0,35.1,29.8,39.9,33.9,29.1,98,95,88,30.74,30.68,3,1,7,0.01
2013-2-27,51.3,36.0,26.8,37.3,30.3,22.5,96,81,54,30.74,30.63,3,1,6,0.01
2013-2-28,48.6,38.4,30.4,40.9,35.2,28.4,97,89,73,30.63,30.55,4,1,6,0.00
2013-3-1,45.0,39.3,34.0,37.6,34.6,30.8,93,83,69,30.59,30.48,5,1,9,0.00
2013-3-2,51.8,42.3,32.2,42.9,37.9,30.9,96,85,67,30.48,30.30,8,2,11,0.00
2013-3-3,46.2,42.6,39.9,40.2,38.1,34.2,92,84,73,30.30,30.13,4,1,7,0.00
2013-3-4,40.8,38.2,32.4,35.6,33.5,29.8,90,83,78,30.13,29.79,7,4,11,0.00
2013-3-5,44.8,35.9,29.5,36.3,31.5,27.1,93,84,69,29.79,29.70,3,1,5,0.00
2013-3-6,39.4,36.8,33.6,36.2,34.7,31.6,96,92,87,29.77,29.71,5,2,11,0.03
2013-3-7,43.5,39.2,37.2,42.0,37.8,35.5,97,95,90,29.71,29.61,10,3,23,0.16
2013-3-8,38.1,36.9,35.8,36.1,35.2,34.5,96,94,90,29.77,29.61,10,5,21,0.02
2013-3-9,36.0,34.7,32.7,34.8,32.5,27.0,97,92,77,29.95,29.77,5,3,18,0.11
2013-3-10,35.2,31.0,24.4,29.9,26.2,21.4,93,82,70,30.16,29.94,10,3,22,0.01
2013-3-11,33.4,26.3,19.2,27.0,21.3,16.8,94,82,60,30.20,30.15,6,2,17,0.00
2013-3-12,39.2,31.5,22.5,32.1,25.5,19.0,88,79,65,30.18,29.95,6,2,9,0.05
2013-3-13,39.0,33.0,28.9,29.2,27.4,25.3,92,80,62,30.04,29.91,5,2,10,0.00
2013-3-14,41.4,35.3,28.6,36.0,31.2,23.8,91,85,79,30.04,29.65,12,4,18,0.00
2013-3-15,45.7,38.8,33.4,40.3,35.1,30.8,91,87,78,29.65,29.42,14,7,22,0.04
2013-3-16,34.7,32.9,31.1,33.0,31.5,29.8,97,95,89,29.43,29.24,8,2,11,0.37
2013-3-17,40.5,34.6,29.3,36.3,32.8,27.3,97,93,82,29.31,29.18,9,2,18,0.34
2013-3-18,37.6,33.7,30.4,36.5,32.3,29.1,97,94,89,29.55,29.31,9,4,24,0.11
2013-3-19,34.5,32.2,30.9,33.4,31.3,30.0,97,97,93,29.73,29.55,7,2,17,0.27
2013-3-20,34.7,32.3,28.8,30.9,29.1,25.9,93,88,79,30.12,29.73,7,4,16,0.19
2013-3-21,35.1,30.4,21.7,29.2,26.5,19.7,96,86,73,30.16,30.08,10,5,20,0.06
2013-3-22,33.1,31.8,30.0,29.8,28.0,27.0,91,86,81,30.10,30.02,13,10,28,0.00
2013-3-23,31.5,30.6,30.0,28.4,26.0,23.1,90,83,75,30.26,30.09,13,11,26,0.00
2013-3-24,32.7,30.8,29.7,26.8,24.9,23.1,83,79,70,30.36,30.25,13,8,24,0.00
2013-3-25,32.7,31.1,29.8,27.7,25.8,24.0,87,81,75,30.37,30.32,8,3,17,0.00
2013-3-26,35.1,31.0,27.7,29.8,25.5,22.0,90,80,69,30.32,30.22,8,2,18,0.00
2013-3-27,37.4,31.2,25.3,30.1,27.1,23.4,95,85,67,30.22,30.15,5,1,18,0.14
2013-3-28,36.9,31.5,25.0,29.1,26.2,22.7,95,82,65,30.17,30.10,6,1,14,0.07
2013-3-29,38.8,32.6,27.7,31.5,27.1,24.4,91,81,61,30.10,29.99,6,1,12,0.01
2013-3-30,37.6,30.7,23.7,32.7,27.4,21.4,95,88,79,30.08,30.01,3,1,5,0.04
2013-3-31,36.3,31.0,23.5,27.7,24.4,20.3,92,77,62,30.09,30.06,6,3,12,0.00
2013-4-1,37.8,32.0,23.4,28.3,24.8,19.7,89,75,63,30.15,30.07,7,2,15,0.00
2013-4-2,40.3,34.2,28.8,33.8,29.3,24.5,91,82,72,30.30,30.15,4,1,11,0.00
2013-4-3,42.3,34.4,25.0,33.2,28.6,23.0,94,80,64,30.37,30.30,4,1,10,0.01
2013-4-4,43.9,36.7,30.4,35.8,32.3,28.7,95,85,58,30.33,30.27,4,2,12,0.07
2013-4-5,39.6,35.7,29.8,34.8,30.3,26.6,94,81,67,30.31,30.26,5,2,11,0.00
2013-4-6,49.6,38.6,29.7,38.7,30.6,26.1,89,74,49,30.32,30.23,9,3,14,0.00
2013-4-7,42.4,36.3,31.3,36.1,32.0,28.4,90,84,73,30.24,30.04,9,3,13,0.00
2013-4-8,41.4,35.5,30.9,31.4,28.8,24.6,89,77,59,30.04,29.80,8,5,16,0.00
2013-4-9,41.0,35.3,28.8,33.2,28.7,24.4,92,77,61,29.80,29.73,7,2,14,0.00
2013-4-10,40.5,36.2,32.7,36.5,33.5,30.7,93,90,82,29.76,29.65,8,2,13,0.01
2013-4-11,42.4,38.0,34.5,36.6,34.0,31.3,93,86,76,29.65,29.46,9,5,17,0.00
2013-4-12,42.8,38.4,34.5,38.2,35.3,31.8,92,88,82,29.69,29.43,9,3,17,0.00
2013-4-13,52.9,44.8,38.5,45.2,39.0,36.4,94,81,57,29.80,29.48,19,7,32,0.00
2013-4-14,54.0,51.7,47.7,50.1,47.1,43.9,93,84,76,29.51,29.40,36,24,50,0.23
2013-4-15,53.6,49.4,45.7,47.8,44.1,42.1,91,82,70,29.79,29.44,33,16,48,0.03
2013-4-16,52.5,47.3,41.9,45.9,41.0,35.7,92,79,63,29.84,29.40,32,13,50,0.07
2013-4-17,54.9,46.1,38.8,50.1,41.9,33.7,96,85,77,29.88,29.14,28,15,43,0.16
2013-4-18,52.0,46.3,41.9,45.0,41.3,38.4,92,83,70,29.92,29.11,24,7,37,0.07
2013-4-19,55.2,44.7,36.7,39.6,35.6,32.8,92,71,46,30.45,29.92,7,2,13,0.00
2013-4-20,54.0,46.2,39.6,41.8,37.1,32.6,85,71,59,30.45,30.17,17,10,30,0.00
2013-4-21,52.9,45.7,39.9,45.1,39.6,35.8,91,79,59,30.18,29.86,19,7,27,0.02
2013-4-22,53.6,45.7,39.2,47.0,39.9,35.5,92,81,62,29.87,29.60,23,8,41,0.02
2013-4-23,54.9,47.3,42.1,44.5,40.6,37.9,93,78,59,30.08,29.73,6,2,18,0.04
2013-4-24,53.4,48.7,41.7,50.5,41.9,34.2,96,78,54,30.24,29.90,10,3,20,0.16
2013-4-25,51.1,42.8,37.9,42.4,36.9,33.4,91,80,65,30.23,30.04,6,2,16,0.03
2013-4-26,48.7,39.6,34.7,38.6,34.9,32.1,94,84,60,30.06,29.86,6,2,17,0.12
2013-4-27,49.1,41.9,36.3,36.0,32.9,27.0,94,72,44,30.16,29.99,6,3,15,0.04
2013-4-28,49.8,42.7,36.7,43.8,38.0,31.6,92,84,71,29.99,29.63,18,4,24,0.08
2013-4-29,53.8,44.4,37.4,39.4,35.9,33.4,90,73,50,30.12,29.63,6,3,18,0.00
2013-4-30,57.6,45.0,35.1,36.0,32.4,21.7,91,65,28,30.34,30.12,11,3,19,0.00
2013-5-1,55.2,45.7,41.2,44.7,36.3,29.6,87,70,48,30.30,30.13,17,7,25,0.01
2013-5-2,56.1,45.5,35.4,41.5,36.1,28.5,91,71,41,30.30,30.03,16,8,24,0.00
2013-5-3,51.6,48.6,41.5,47.7,44.3,38.9,92,85,78,30.04,29.69,20,10,33,0.09
2013-5-4,52.0,44.3,35.2,42.1,37.8,33.1,92,79,57,29.92,29.74,9,3,23,0.00
2013-5-5,62.6,53.0,46.6,52.1,47.0,40.1,89,80,65,30.06,29.92,16,8,23,0.00
2013-5-6,62.1,52.4,32.0,52.3,47.1,43.5,91,80,67,30.07,30.02,12,5,20,0.00
2013-5-7,67.8,55.4,41.2,50.5,43.3,37.9,89,66,44,30.09,29.90,10,5,18,0.00
2013-5-8,59.7,52.1,45.9,52.3,45.6,38.4,93,79,67,29.89,29.51,17,7,26,0.09
2013-5-9,52.9,46.7,42.4,43.0,40.8,37.1,94,80,61,29.57,29.36,13,7,24,0.04
2013-5-10,57.6,47.5,41.9,48.8,43.7,38.6,97,87,63,29.66,29.37,10,2,29,0.16
2013-5-11,49.5,44.8,40.1,45.3,40.6,36.3,91,85,77,29.75,29.50,14,5,24,0.02
2013-5-12,52.2,46.4,39.6,47.1,42.0,35.1,92,85,69,29.81,29.59,16,4,23,0.01
2013-5-13,49.8,41.3,36.5,41.2,36.9,33.5,92,84,64,29.64,29.48,10,4,25,0.11
2013-5-14,53.1,43.5,39.4,41.5,38.2,34.9,90,82,53,29.47,29.39,15,6,27,0.10
2013-5-15,48.7,41.5,34.2,42.7,38.4,32.3,96,89,77,29.45,29.32,7,3,13,0.11
2013-5-16,54.9,45.4,37.4,41.5,37.6,32.7,93,75,48,29.72,29.42,8,3,16,0.00
2013-5-17,57.7,47.1,32.0,43.4,39.9,34.0,96,73,51,29.89,29.73,4,2,9,0.00
2013-5-18,49.3,47.0,45.1,48.5,45.8,42.3,98,96,81,29.86,29.75,4,2,17,0.71
2013-5-19,52.7,48.7,45.0,52.2,48.1,44.4,98,98,98,30.00,29.84,2,0,6,0.02
2013-5-20,67.1,57.2,50.5,61.2,55.5,49.6,98,94,76,30.04,29.93,5,1,9,0.12
2013-5-21,58.8,51.9,44.2,49.7,47.2,43.4,98,85,68,30.10,30.03,5,1,8,0.00
2013-5-22,57.0,48.2,40.5,45.6,38.9,31.2,90,72,42,30.09,30.00,6,2,12,0.00
2013-5-23,48.9,42.2,37.2,37.1,33.9,31.5,84,72,61,30.02,29.91,7,4,15,0.00
2013-5-24,51.6,44.5,37.0,42.7,38.9,33.8,92,81,69,30.24,29.92,8,4,16,0.06
2013-5-25,63.9,51.9,34.9,46.3,39.5,31.1,89,64,43,30.24,30.13,5,2,12,0.00
2013-5-26,63.0,53.7,42.4,51.3,44.9,37.2,84,72,62,30.14,29.81,10,3,15,0.00
2013-5-27,51.3,48.7,45.3,44.8,43.1,38.9,89,81,76,29.78,29.46,17,13,28,0.00
2013-5-28,59.0,50.3,42.4,49.4,44.2,39.6,93,80,63,29.81,29.56,8,4,13,0.01
2013-5-29,56.7,50.9,43.5,53.5,47.8,41.9,97,89,79,29.93,29.81,2,1,5,0.01
2013-5-30,59.4,54.8,49.6,52.5,49.5,44.5,95,82,75,30.09,29.91,2,1,7,0.02
2013-5-31,67.5,57.9,48.4,55.1,49.3,40.5,94,73,58,30.18,30.08,3,1,8,0.00
2013-6-1,60.4,52.7,43.5,47.0,42.9,38.3,88,70,53,30.29,30.18,4,1,10,0.00
2013-6-2,59.4,52.6,39.2,45.9,42.4,36.8,92,69,50,30.46,30.31,5,1,12,0.00
2013-6-3,61.7,50.7,45.7,54.2,45.9,41.6,88,84,76,30.51,30.46,5,2,8,0.00
2013-6-4,68.0,54.1,44.8,52.7,47.3,44.0,97,79,55,30.51,30.33,2,1,9,0.00
2013-6-5,63.7,52.8,42.6,54.0,47.7,40.2,96,83,66,30.33,30.18,4,1,8,0.00
2013-6-6,66.4,55.4,47.7,53.7,47.5,39.3,90,77,44,30.27,30.20,6,2,11,0.00
2013-6-7,58.3,52.2,44.8,51.9,48.5,42.6,95,87,76,30.35,30.27,6,1,10,0.00
2013-6-8,68.9,56.8,41.2,54.7,47.8,39.1,96,73,50,30.35,30.14,4,1,8,0.11
2013-6-9,66.0,54.8,46.6,56.2,50.4,44.0,96,86,67,30.15,30.00,5,2,10,0.03
2013-6-10,57.7,51.5,45.9,51.6,47.8,43.8,94,87,73,30.04,29.93,5,2,9,0.00
2013-6-11,58.3,52.7,41.5,53.3,48.5,39.6,96,86,70,29.93,29.73,8,4,15,0.03
2013-6-12,64.4,55.8,50.5,57.1,51.1,46.5,94,84,67,29.73,29.59,8,3,16,0.04
2013-6-13,65.8,54.3,47.3,51.5,45.9,41.5,93,74,53,29.80,29.56,5,1,7,0.00
2013-6-14,64.2,53.9,45.1,50.6,46.3,42.5,93,76,59,29.83,29.60,16,6,24,0.07
2013-6-15,56.8,50.8,46.9,48.5,45.2,41.4,94,81,62,29.60,29.44,12,6,22,0.03
2013-6-16,63.7,54.6,46.4,54.0,48.8,44.9,95,82,66,30.01,29.58,4,1,8,0.01
2013-6-17,63.3,55.4,46.4,56.3,51.7,44.0,96,87,77,30.09,30.01,5,1,11,0.00
2013-6-18,68.7,59.2,51.6,56.7,52.2,49.1,92,78,61,30.06,29.93,6,2,13,0.00
2013-6-19,67.8,57.6,50.0,52.5,48.6,45.0,92,73,51,30.05,29.97,4,1,11,0.00
2013-6-20,73.8,60.2,47.5,56.8,50.0,40.4,92,72,31,30.05,29.81,9,4,18,0.04
2013-6-21,66.0,58.5,53.4,58.6,53.1,47.7,93,83,70,29.81,29.63,8,1,14,0.00
2013-6-22,63.0,53.9,48.7,53.2,49.1,46.2,96,84,63,29.63,29.32,13,6,22,0.26
2013-6-23,59.4,52.1,46.9,57.9,50.2,46.0,97,93,86,29.92,29.38,2,0,10,0.37
2013-6-24,59.2,51.9,45.9,49.1,45.7,42.8,93,80,64,30.27,29.93,3,0,6,0.01
2013-6-25,63.7,53.4,43.5,51.5,46.7,41.1,92,79,62,30.40,30.27,5,1,8,0.00
2013-6-26,64.6,55.3,47.1,52.1,48.0,45.8,95,78,55,30.44,30.40,4,1,8,0.00
2013-6-27,60.1,53.8,47.1,55.4,50.3,43.7,95,88,76,30.43,30.14,5,1,7,0.08
2013-6-28,63.3,55.3,47.7,58.2,52.4,42.9,97,90,79,30.14,29.90,3,1,14,0.18
2013-6-29,61.3,53.5,45.9,53.3,48.4,43.1,93,83,66,30.15,30.06,6,1,14,0.00
2013-6-30,64.6,56.4,48.6,56.5,51.7,45.8,92,84,72,30.11,29.85,9,2,25,0.01
2013-7-1,62.4,53.3,45.7,50.3,46.1,42.9,94,77,57,29.92,29.84,3,1,11,0.01
2013-7-2,55.6,52.0,46.4,52.3,48.1,42.1,94,87,75,29.90,29.46,14,6,25,0.06
2013-7-3,63.5,57.7,53.8,56.8,53.1,50.3,96,85,75,29.82,29.48,7,1,12,0.01
2013-7-4,62.1,57.2,51.1,60.7,52.8,47.2,96,86,75,30.16,29.74,15,4,20,0.22
2013-7-5,69.1,58.7,50.7,57.4,52.2,47.3,91,80,62,30.37,30.16,6,1,13,0.00
2013-7-6,74.1,62.4,48.0,58.2,52.5,46.3,96,72,46,30.38,30.31,8,3,17,0.00
2013-7-7,76.8,65.3,57.4,60.3,56.5,49.3,91,75,40,30.60,30.42,3,1,7,0.00
2013-7-8,77.2,67.8,52.5,65.2,60.2,51.4,98,77,63,30.63,30.49,3,1,6,0.00
2013-7-9,81.9,70.5,57.0,64.8,60.5,54.4,91,72,49,30.49,30.32,4,1,7,0.00
2013-7-10,68.4,59.5,52.2,59.8,55.2,50.2,95,86,70,30.41,30.35,2,1,5,0.00
2013-7-11,77.2,63.8,53.1,66.4,58.5,51.7,95,84,64,30.38,30.26,3,1,6,0.00
2013-7-12,81.9,70.3,59.5,66.7,60.8,56.6,94,73,50,30.27,30.20,3,1,8,0.00
2013-7-13,75.6,64.5,56.5,63.2,58.6,54.2,94,82,64,30.31,30.22,4,1,8,0.00
2013-7-14,74.1,61.9,53.8,56.5,52.5,47.2,96,73,50,30.31,30.17,2,1,9,0.00
2013-7-15,69.4,59.4,51.6,57.0,53.0,47.6,90,80,64,30.21,30.18,3,1,13,0.00
2013-7-16,76.1,65.9,57.9,62.5,57.6,53.3,90,75,61,30.25,30.18,3,1,10,0.00
2013-7-17,76.3,65.6,53.1,58.9,55.3,50.3,93,71,50,30.34,30.25,3,1,8,0.00
2013-7-18,81.9,69.8,59.0,66.3,60.3,54.1,90,73,54,30.38,30.33,3,1,7,0.00
2013-7-19,78.1,65.5,51.8,61.6,57.4,50.4,97,77,54,30.39,30.34,4,1,10,0.00
2013-7-20,71.1,60.1,48.6,61.8,55.3,47.0,97,85,69,30.37,30.28,4,2,10,0.00
2013-7-21,71.2,59.2,51.4,59.1,53.7,49.5,96,83,61,30.31,30.15,5,2,10,0.00
2013-7-22,70.0,60.8,56.7,62.3,57.6,54.6,96,89,73,30.16,30.00,3,1,8,0.00
2013-7-23,72.1,63.8,58.6,65.8,60.6,57.1,97,90,73,30.00,29.86,5,1,10,0.28
2013-7-24,72.1,65.0,57.7,63.8,59.9,56.0,97,84,65,29.90,29.87,5,1,10,0.01
2013-7-25,67.8,61.1,55.4,64.9,59.3,54.2,97,94,89,29.90,29.80,4,0,8,0.59
2013-7-26,75.6,62.9,54.7,62.1,57.3,52.3,98,83,58,29.85,29.82,7,2,12,0.00
2013-7-27,73.8,61.4,52.0,61.5,56.1,49.6,94,83,54,29.85,29.67,5,2,11,0.02
2013-7-28,62.2,57.6,54.5,60.5,56.0,52.4,97,94,85,29.67,29.51,5,1,11,1.41
2013-7-29,66.4,58.6,54.5,63.3,56.6,52.1,97,93,83,29.75,29.63,6,2,11,0.53
2013-7-30,68.5,57.5,51.1,57.9,53.3,49.8,97,86,64,29.80,29.75,5,2,11,0.12
2013-7-31,69.3,58.4,50.2,55.9,53.1,49.3,97,84,60,29.89,29.77,4,0,6,0.25
2013-8-1,70.5,63.7,55.8,64.6,60.4,54.3,97,90,79,29.77,29.62,13,5,21,0.14
2013-8-2,69.1,63.8,57.7,61.7,56.6,51.5,96,78,58,29.63,29.53,15,8,28,0.02
2013-8-3,65.7,58.7,53.4,53.7,51.8,49.8,91,78,62,29.85,29.58,11,5,23,0.00
2013-8-4,69.3,60.2,53.6,56.8,52.4,48.5,90,76,54,29.90,29.85,11,4,21,0.00
2013-8-5,60.1,56.5,50.2,56.7,54.3,47.6,96,92,83,29.89,29.75,3,0,6,0.11
2013-8-6,63.0,55.0,45.5,52.3,49.0,44.2,96,81,63,30.00,29.86,5,1,9,0.00
2013-8-7,68.4,57.6,47.5,55.2,50.5,45.2,93,79,54,30.07,29.98,4,1,6,0.07
2013-8-8,68.5,58.8,48.6,59.2,53.4,47.0,97,83,64,30.07,29.93,6,1,10,0.01
2013-8-9,67.8,58.8,52.9,58.1,52.8,47.7,94,81,64,30.11,29.88,6,2,10,0.00
2013-8-10,64.6,55.4,47.5,53.1,49.5,45.2,94,81,62,30.12,29.99,4,1,10,0.00
2013-8-11,63.9,54.5,47.8,53.5,49.9,45.8,95,85,60,29.99,29.86,2,1,9,0.09
2013-8-12,66.4,55.4,47.7,55.5,49.5,46.3,96,82,57,30.03,29.84,2,0,6,0.01
2013-8-13,64.0,55.5,45.3,52.0,47.9,43.4,94,77,55,30.16,30.03,3,0,7,0.00
2013-8-14,69.3,60.5,50.5,57.9,53.9,47.4,93,79,63,30.15,29.94,8,2,17,0.01
2013-8-15,68.5,62.0,57.7,63.0,58.8,55.4,94,89,78,29.94,29.75,6,2,15,0.18
2013-8-16,69.3,59.7,50.2,58.6,54.3,48.2,96,83,63,29.88,29.74,2,0,9,0.05
2013-8-17,69.6,59.1,51.6,61.4,54.6,47.3,95,85,68,29.86,29.41,16,4,27,0.22
2013-8-18,63.3,54.0,47.8,54.0,49.7,45.9,95,86,67,29.82,29.46,1,0,11,0.02
2013-8-19,64.8,55.8,47.8,55.4,50.2,45.9,94,82,65,30.18,29.82,1,0,9,0.00
2013-8-20,65.7,56.9,50.2,56.5,52.4,48.2,94,86,69,30.26,30.16,1,0,11,0.06
2013-8-21,71.1,62.4,56.3,61.6,57.4,53.8,92,84,68,30.16,30.04,3,0,15,0.01
2013-8-22,65.1,58.6,55.0,61.0,56.5,53.8,97,93,79,30.13,30.03,1,0,7,0.02
2013-8-23,69.6,61.6,53.2,62.4,57.6,51.4,96,87,72,30.03,29.88,8,1,16,0.00
2013-8-24,62.6,57.4,53.4,57.6,55.2,52.3,96,92,80,29.98,29.90,0,0,0,0.07
2013-8-25,68.7,59.1,52.5,60.9,55.8,50.8,96,89,76,30.18,29.98,4,0,7,0.00
2013-8-26,71.2,59.9,50.7,63.3,56.8,49.9,98,90,73,30.19,30.10,3,1,7,0.00
2013-8-27,70.5,59.3,50.7,60.7,55.1,49.3,97,87,68,30.21,30.07,6,1,10,0.00
2013-8-28,66.6,56.3,48.7,57.7,52.0,44.3,97,86,63,30.23,30.10,7,2,15,0.01
2013-8-29,64.9,58.0,48.9,58.4,53.6,44.3,93,85,76,30.10,30.01,5,1,10,0.00
2013-8-30,68.5,57.8,46.2,60.3,53.7,41.8,93,86,73,30.08,29.84,8,2,19,0.04
2013-8-31,63.3,52.5,45.0,49.7,44.6,40.2,91,76,48,30.26,30.08,5,1,10,0.00
2013-9-1,57.8,53.9,50.2,53.3,49.8,45.9,92,86,76,30.27,30.12,2,1,13,0.00
2013-9-2,67.5,60.4,55.6,60.2,57.1,53.3,94,89,76,30.25,30.09,3,1,10,0.00
2013-9-3,74.8,62.3,52.0,60.5,55.9,49.0,95,81,54,30.27,30.20,7,2,13,0.00
2013-9-4,72.0,59.3,51.1,55.3,49.2,39.7,94,71,46,30.20,29.93,11,5,17,0.00
2013-9-5,63.5,56.5,49.5,52.1,47.3,41.7,90,72,54,29.93,29.87,9,1,14,0.00
2013-9-6,52.2,48.8,45.5,48.8,46.1,42.2,96,90,76,29.93,29.87,4,2,12,0.87
2013-9-7,59.0,50.6,45.1,51.1,46.9,41.6,98,88,69,29.95,29.75,9,3,16,0.55
2013-9-8,59.9,50.4,41.2,47.5,44.1,38.9,94,80,60,30.01,29.94,6,3,12,0.00
2013-9-9,61.5,51.6,45.1,52.1,47.4,43.7,95,86,62,30.17,29.96,3,1,11,0.03
2013-9-10,63.9,53.4,45.5,52.4,47.8,44.2,96,82,61,30.25,30.17,3,1,11,0.00
2013-9-11,58.6,53.6,48.7,56.0,51.4,46.8,95,92,88,30.24,30.09,5,1,7,0.04
2013-9-12,69.4,58.7,52.0,58.5,54.7,50.3,97,87,59,30.10,29.89,8,2,14,0.01
2013-9-13,53.4,49.3,46.0,51.2,46.7,44.1,96,91,80,30.10,29.96,2,0,7,0.12
2013-9-14,60.3,50.0,43.3,48.3,44.7,42.0,96,83,58,30.08,29.95,5,1,8,0.00
2013-9-15,59.4,49.9,40.6,56.2,45.5,37.8,92,85,73,29.95,29.20,18,8,30,0.13
2013-9-16,55.4,45.5,38.7,46.9,41.2,36.8,94,85,70,29.35,29.28,4,1,13,0.00
2013-9-17,56.3,47.3,40.5,47.4,42.8,38.8,94,85,69,29.41,29.30,3,1,9,0.00
2013-9-18,57.9,47.1,39.7,47.9,42.3,38.2,96,84,64,29.75,29.41,4,1,8,0.01
2013-9-19,54.0,47.1,42.3,52.7,45.6,40.7,97,95,89,29.78,29.53,7,2,13,0.37
2013-9-20,58.6,50.9,43.0,52.3,47.1,42.2,98,87,72,30.05,29.78,7,2,15,0.01
2013-9-21,60.4,55.7,48.9,56.9,51.9,45.0,93,87,83,30.12,30.04,10,4,15,0.00
2013-9-22,67.5,60.6,55.6,59.5,55.9,52.6,93,85,73,30.30,30.12,6,1,17,0.00
2013-9-23,65.1,57.5,49.3,59.8,54.8,47.6,96,91,81,30.29,30.13,4,1,7,0.00
2013-9-24,58.6,56.5,54.7,57.3,54.7,52.8,97,94,88,30.13,29.97,4,1,8,0.00
2013-9-25,54.7,50.4,41.9,53.4,49.6,40.9,98,97,94,30.07,29.91,2,0,8,0.09
2013-9-26,57.0,49.4,41.7,48.7,45.6,40.2,97,87,71,30.14,30.07,7,2,16,0.01
2013-9-27,58.3,53.9,50.5,55.4,51.5,48.5,96,92,87,30.08,29.95,6,2,10,0.00
2013-9-28,65.1,55.4,47.5,55.8,49.8,46.1,96,83,54,29.95,29.88,6,2,11,0.00
2013-9-29,59.9,52.1,46.4,49.9,46.9,43.9,93,83,66,29.96,29.92,9,4,19,0.00
2013-9-30,55.9,51.4,48.4,49.6,47.1,44.9,92,85,73,29.94,29.85,8,4,16,0.00
2013-10-1,55.0,51.0,47.3,48.8,46.2,44.0,91,84,71,29.92,29.86,12,4,20,0.00
2013-10-2,56.5,53.7,50.7,53.9,50.4,46.4,94,89,84,29.89,29.79,10,6,24,0.02
2013-10-3,64.8,58.5,54.1,59.8,55.9,52.5,95,91,81,29.79,29.54,11,7,22,0.04
2013-10-4,66.0,58.0,51.3,63.0,55.8,49.8,96,93,87,29.82,29.54,8,2,14,0.08
2013-10-5,58.3,53.9,49.6,53.2,50.5,48.3,96,89,78,30.10,29.82,9,2,16,0.01
2013-10-6,61.2,58.0,55.4,57.0,54.0,51.2,93,87,79,30.11,30.04,13,6,17,0.00
2013-10-7,63.5,59.9,56.8,58.3,55.9,54.5,94,87,78,30.08,29.99,12,5,21,0.09
2013-10-8,59.2,54.2,48.6,56.5,51.8,45.2,97,92,85,30.16,29.99,8,2,14,0.01
2013-10-9,51.3,46.4,41.9,47.4,41.6,35.5,96,84,65,30.15,29.92,5,1,13,0.13
2013-10-10,48.4,43.6,38.7,38.9,36.7,33.2,87,77,65,30.44,30.16,6,2,13,0.00
2013-10-11,49.6,46.3,43.7,44.0,41.6,38.1,89,84,80,30.52,30.43,5,2,11,0.00
2013-10-12,51.1,47.7,43.9,48.2,44.9,42.0,96,90,84,30.49,30.29,2,1,11,0.00
2013-10-13,51.6,47.3,41.4,48.6,46.0,40.3,98,95,84,30.29,30.05,3,2,13,0.14
2013-10-14,55.6,48.5,43.3,51.1,46.0,42.0,98,91,73,30.05,29.94,3,1,14,0.02
2013-10-15,49.3,46.6,40.8,48.5,45.7,39.8,98,97,96,30.02,29.91,2,1,5,0.12
2013-10-16,50.2,45.7,40.8,47.1,44.1,39.6,97,94,88,30.00,29.58,7,2,17,0.69
2013-10-17,50.0,47.0,44.4,49.3,46.3,43.9,98,97,96,30.00,29.63,2,0,6,0.62
2013-10-18,53.1,48.3,44.4,51.2,46.8,42.8,97,94,90,30.02,29.72,8,4,16,0.12
2013-10-19,57.2,52.8,50.4,54.9,50.8,48.2,96,93,90,29.72,29.48,11,6,20,0.31
2013-10-20,57.6,52.5,49.5,53.7,49.9,47.5,95,91,83,29.50,29.44,8,4,15,0.01
2013-10-21,58.3,52.2,49.1,56.4,49.6,46.3,96,91,87,29.55,29.30,9,4,14,0.07
2013-10-22,58.5,56.5,54.1,56.6,53.4,51.2,95,89,82,29.30,29.12,13,8,21,0.43
2013-10-23,55.8,50.1,42.1,53.0,47.0,39.1,95,89,73,29.57,29.00,9,3,13,0.02
2013-10-24,53.1,46.0,42.3,48.0,42.9,39.4,95,89,78,29.93,29.57,5,1,11,0.00
2013-10-25,58.6,51.8,46.0,53.9,49.0,42.6,96,90,80,29.88,29.33,11,6,19,0.27
2013-10-26,54.1,50.4,45.1,51.3,47.0,41.4,95,88,74,29.45,29.16,17,5,29,0.01
2013-10-27,53.1,48.5,45.1,46.7,44.4,41.3,92,86,77,29.19,28.86,16,8,32,0.11
2013-10-28,52.9,45.9,42.6,46.5,42.9,40.2,94,90,77,29.35,28.91,12,2,19,0.02
2013-10-29,52.3,43.4,38.8,44.8,39.9,37.0,95,88,72,29.88,29.34,8,1,13,0.01
2013-10-30,51.4,44.7,38.8,48.9,42.0,36.7,95,90,78,29.95,29.62,19,6,31,0.03
2013-10-31,53.4,45.9,41.5,46.2,41.1,38.0,94,83,72,29.85,29.62,15,7,26,0.11
2013-11-1,50.7,43.8,39.7,42.6,39.1,36.9,91,83,74,29.63,29.58,12,4,28,0.00
2013-11-2,45.1,40.1,35.2,42.8,37.8,32.8,96,91,86,29.58,28.86,13,5,22,0.38
2013-11-3,49.6,40.7,34.0,40.6,36.9,32.2,96,87,67,29.30,28.93,2,1,11,0.05
2013-11-4,54.3,38.7,32.7,41.2,34.6,31.0,95,86,58,29.39,29.22,5,1,7,0.00
2013-11-5,42.6,36.5,31.6,39.5,34.2,29.0,94,91,86,29.35,29.20,6,1,12,0.02
2013-11-6,43.7,39.7,36.1,40.3,37.3,34.0,95,91,85,29.40,29.26,5,1,13,0.10
2013-11-7,47.8,41.5,35.4,40.5,37.1,33.8,95,85,71,29.50,29.40,18,6,28,0.00
2013-11-8,49.3,41.2,35.8,42.7,37.6,33.6,93,87,74,29.55,29.48,10,3,19,0.01
2013-11-9,43.2,35.9,30.7,39.6,33.7,29.5,96,92,84,29.66,29.51,7,2,14,0.00
2013-11-10,46.8,36.7,30.9,39.1,32.9,29.0,96,87,71,30.16,29.66,9,3,18,0.01
2013-11-11,53.6,46.6,37.9,51.6,43.3,34.2,94,88,82,30.07,29.83,13,7,22,0.05
2013-11-12,48.9,42.4,39.2,43.5,39.6,37.0,95,90,75,30.39,30.06,5,1,14,0.13
2013-11-13,47.3,43.6,39.4,42.7,39.4,37.0,95,85,71,30.41,29.83,17,7,28,0.00
2013-11-14,48.9,40.8,34.7,41.6,34.6,30.1,91,79,59,30.50,29.81,5,1,20,0.00
2013-11-15,47.7,44.6,37.2,45.7,42.1,33.4,96,91,85,30.50,30.37,7,2,16,0.00
2013-11-16,51.4,47.7,41.5,48.0,44.7,39.1,94,89,83,30.37,30.22,6,2,19,0.00
2013-11-17,49.8,40.7,34.5,44.4,38.2,32.0,98,91,74,30.38,29.94,5,2,9,0.05
2013-11-18,46.6,38.2,31.3,44.2,36.2,29.7,97,93,79,29.94,29.78,5,0,8,0.01
2013-11-19,41.4,33.2,26.4,36.5,29.1,24.7,95,85,63,30.04,29.64,14,3,27,0.01
2013-11-20,41.2,37.8,31.8,39.3,35.1,30.8,96,90,82,29.80,29.41,10,4,23,0.16
2013-11-21,37.6,34.4,28.8,32.8,30.7,27.3,95,86,81,30.19,29.80,8,2,18,0.00
2013-11-22,45.7,32.5,26.4,34.4,28.3,24.4,93,85,62,30.31,30.19,5,2,8,0.00
2013-11-23,50.4,37.7,34.9,40.8,34.3,30.8,93,88,67,30.47,30.30,4,2,7,0.00
2013-11-24,40.6,35.7,31.5,38.8,33.5,29.1,95,92,88,30.71,30.46,3,0,5,0.00
2013-11-25,42.1,35.6,30.2,36.8,32.6,28.0,94,89,80,30.75,30.70,4,2,6,0.00
2013-11-26,47.8,43.5,37.4,46.7,42.3,35.7,97,95,92,30.72,30.53,2,1,11,0.15
2013-11-27,51.6,47.3,44.2,48.0,45.2,43.0,97,93,85,30.55,30.49,5,1,12,0.00
2013-11-28,44.4,41.7,39.0,43.6,40.0,37.3,97,93,89,30.63,30.35,8,1,18,0.01
2013-11-29,45.0,40.8,36.9,43.6,37.1,32.0,95,87,77,30.35,30.09,5,2,23,0.10
2013-11-30,43.3,39.0,34.0,41.5,35.8,29.8,94,88,79,30.42,30.27,6,2,12,0.00
2013-12-1,48.7,41.8,36.3,45.2,40.0,34.5,97,93,85,30.61,30.38,7,2,12,0.01
2013-12-2,45.1,41.7,36.9,42.6,39.0,34.8,95,90,84,30.60,30.35,9,3,20,0.01
2013-12-3,48.0,45.3,39.0,44.7,42.5,38.0,96,90,85,30.35,30.12,10,5,18,0.12
2013-12-4,42.8,37.4,33.1,38.5,35.1,32.0,97,91,81,30.29,30.08,7,2,24,0.01
2013-12-5,43.7,35.7,28.6,42.4,33.3,25.1,96,91,79,30.14,29.42,13,5,48,0.33
2013-12-6,38.5,31.6,28.0,29.7,26.7,23.8,93,82,69,30.35,30.13,5,1,9,0.00
2013-12-7,45.7,40.2,31.3,43.8,38.8,29.5,97,95,91,30.25,29.97,7,3,19,0.01
2013-12-8,50.7,48.4,45.3,49.7,46.8,42.9,97,94,88,29.98,29.87,13,4,29,0.04
2013-12-9,51.4,49.3,46.6,49.2,46.0,40.4,96,89,78,30.21,29.97,12,6,26,0.00
2013-12-10,52.0,48.6,46.2,47.9,44.2,40.6,89,85,79,30.21,30.16,18,12,32,0.00
2013-12-11,51.6,47.5,41.0,47.9,42.0,33.3,91,82,53,30.25,30.02,18,9,26,0.00
2013-12-12,54.3,51.2,47.1,50.6,46.2,33.8,93,84,52,30.02,29.92,18,10,28,0.07
2013-12-13,54.7,49.8,40.5,50.4,46.1,35.1,94,87,78,29.94,29.72,18,9,27,0.00
2013-12-14,50.2,44.5,37.9,47.6,40.4,32.9,94,86,80,29.93,29.44,29,14,46,0.09
2013-12-15,50.4,43.9,39.0,46.1,39.7,33.0,95,85,71,29.87,29.53,25,10,42,0.26
2013-12-16,47.5,40.6,37.0,43.9,36.3,32.8,92,85,77,29.98,29.53,15,6,28,0.13
2013-12-17,43.9,39.3,35.8,36.3,34.3,32.1,89,82,72,30.10,29.78,17,10,27,0.00
2013-12-18,50.0,43.5,37.9,46.8,40.2,32.3,94,88,74,29.78,28.76,27,13,45,0.17
2013-12-19,42.6,36.9,33.1,35.1,31.7,29.9,95,81,74,29.50,28.86,24,13,37,0.06
2013-12-20,50.4,42.3,35.1,46.5,38.4,31.4,93,86,79,29.76,29.38,26,14,45,0.22
2013-12-21,49.3,42.3,33.4,43.5,37.8,31.9,95,84,72,29.51,29.28,23,13,35,0.60
2013-12-22,39.7,36.8,33.6,34.6,32.6,29.8,94,84,79,29.55,29.30,21,10,37,0.02
2013-12-23,48.0,39.7,34.0,44.3,36.1,30.0,97,87,80,29.53,28.34,22,13,36,0.38
2013-12-24,46.0,39.0,33.6,43.3,32.9,28.3,93,79,65,28.49,28.26,33,23,49,0.08
2013-12-25,43.2,40.2,38.1,35.6,33.7,32.1,81,77,72,29.08,28.48,21,12,36,0.00
2013-12-26,41.4,37.8,35.2,36.4,33.7,31.4,92,85,75,29.31,28.65,19,8,34,0.01
2013-12-27,44.2,40.9,34.5,40.3,37.9,32.8,96,89,84,28.74,28.19,25,19,46,0.54
2013-12-28,40.6,38.4,37.0,37.0,35.8,34.3,94,90,84,29.50,28.74,15,4,35,0.01
2013-12-29,41.7,39.1,36.3,39.3,36.4,32.1,95,90,82,29.82,29.50,17,5,29,0.01
2013-12-30,48.7,42.2,37.0,45.8,40.2,34.1,97,93,87,29.62,29.28,15,6,26,0.94
2013-12-31,43.2,40.3,37.6,40.8,36.9,34.1,92,88,82,29.61,29.26,14,9,24,0.03
2014-1-1,46.2,40.4,37.6,44.6,37.9,34.6,95,90,85,29.32,28.68,19,8,29,0.28
2014-1-2,44.2,41.0,39.6,40.8,38.0,35.7,93,89,83,29.16,28.72,17,7,30,0.09